createdAt,value
2018-10-01T00:01:43.512Z,99737.69
2018-10-01T00:04:11.037Z,99738.12
2018-10-01T00:06:38.550Z,99733.02
2018-10-01T00:09:07.782Z,99734.23
2018-10-01T00:11:38.381Z,99733.87
2018-10-01T00:14:06.714Z,99736.31
2018-10-01T00:16:34.317Z,99736.71
2018-10-01T00:19:02.500Z,99735.27
2018-10-01T00:21:40.610Z,99735.42
2018-10-01T00:24:08.830Z,99731.27
2018-10-01T00:26:36.366Z,99728.48
2018-10-01T00:29:05.364Z,99725.92
2018-10-01T00:31:32.983Z,99728.80
2018-10-01T00:34:00.595Z,99733.87
2018-10-01T00:36:28.127Z,99730.58
2018-10-01T00:38:55.984Z,99729.36
2018-10-01T00:41:24.487Z,99722.89
2018-10-01T00:43:52.014Z,99723.98
2018-10-01T00:46:22.321Z,99726.52
2018-10-01T00:48:49.871Z,99722.02
2018-10-01T00:51:17.451Z,99722.37
2018-10-01T00:53:45.468Z,99721.77
2018-10-01T00:56:13.020Z,99718.13
2018-10-01T00:58:40.594Z,99725.97
2018-10-01T01:01:09.482Z,99732.51
2018-10-01T01:03:37.139Z,99725.49
2018-10-01T01:06:04.669Z,99729.36
2018-10-01T01:08:32.700Z,99721.61
2018-10-01T01:11:00.605Z,99726.37
2018-10-01T01:13:28.149Z,99729.66
2018-10-01T01:15:55.699Z,99731.27
2018-10-01T01:18:23.684Z,99729.71
2018-10-01T01:20:51.220Z,99725.48
2018-10-01T01:23:18.781Z,99729.95
2018-10-01T01:25:47.734Z,99726.59
2018-10-01T01:28:15.286Z,99710.36
2018-10-01T01:30:42.843Z,99707.47
2018-10-01T01:33:11.338Z,99715.97
2018-10-01T01:35:38.888Z,99719.11
2018-10-01T01:38:06.435Z,99709.94
2018-10-01T01:40:33.966Z,99720.59
2018-10-01T01:43:02.985Z,99719.11
2018-10-01T01:45:30.775Z,99722.28
2018-10-01T01:47:58.579Z,99719.97
2018-10-01T01:50:26.134Z,99711.63
2018-10-01T01:52:54.103Z,99713.94
2018-10-01T01:55:21.744Z,99715.62
2018-10-01T01:57:49.339Z,99713.42
2018-10-01T02:00:16.881Z,99711.39
2018-10-01T02:02:46.725Z,99707.67
2018-10-01T02:05:14.314Z,99699.92
2018-10-01T02:07:41.960Z,99700.67
2018-10-01T02:10:09.551Z,99705.92
2018-10-01T02:12:38.512Z,99711.14
2018-10-01T02:15:06.184Z,99732.22
2018-10-01T02:17:33.706Z,99732.38
2018-10-01T02:20:01.537Z,99724.86
2018-10-01T02:22:30.607Z,99720.39
2018-10-01T02:24:58.174Z,99715.06
2018-10-01T02:27:26.730Z,99720.39
2018-10-01T02:29:54.686Z,99724.73
2018-10-01T02:32:22.226Z,99730.06
2018-10-01T02:34:49.715Z,99727.40
2018-10-01T02:37:17.227Z,99734.41
2018-10-01T02:39:51.937Z,99733.91
2018-10-01T02:42:19.431Z,99737.91
2018-10-01T02:44:46.916Z,99739.86
2018-10-01T02:47:14.660Z,99738.06
2018-10-01T02:49:42.517Z,99734.18
2018-10-01T02:53:12.392Z,99733.47
2018-10-01T02:55:41.338Z,99735.20
2018-10-01T02:58:09.447Z,99734.26
2018-10-01T03:00:36.914Z,99742.99
2018-10-01T03:03:04.748Z,99740.22
2018-10-01T03:05:32.229Z,99743.50
2018-10-01T03:07:59.750Z,99740.72
2018-10-01T03:10:30.247Z,99737.62
2018-10-01T03:12:57.825Z,99744.87
2018-10-01T03:15:25.291Z,99739.45
2018-10-01T03:17:54.285Z,99736.67
2018-10-01T03:20:21.821Z,99735.96
2018-10-01T03:22:49.320Z,99734.30
2018-10-01T03:25:17.164Z,99737.83
2018-10-01T03:27:44.689Z,99742.20
2018-10-01T03:30:12.177Z,99738.23
2018-10-01T03:32:41.144Z,99737.51
2018-10-01T03:35:08.640Z,99741.52
2018-10-01T03:37:36.132Z,99733.20
2018-10-01T03:40:03.696Z,99735.03
2018-10-01T03:42:31.588Z,99730.67
2018-10-01T03:44:59.085Z,99727.99
2018-10-01T03:47:26.587Z,99736.34
2018-10-01T03:49:54.090Z,99735.03
2018-10-01T03:52:22.016Z,99729.23
2018-10-01T03:54:49.506Z,99742.78
2018-10-01T03:57:17.035Z,99740.70
2018-10-01T03:59:45.071Z,99742.65
2018-10-01T04:02:12.620Z,99737.95
2018-10-01T04:04:40.109Z,99739.89
2018-10-01T04:07:09.125Z,99741.22
2018-10-01T04:09:36.633Z,99747.87
2018-10-01T04:12:04.136Z,99740.86
2018-10-01T04:14:32.003Z,99740.86
2018-10-01T04:16:59.494Z,99743.63
2018-10-01T04:19:26.995Z,99747.73
2018-10-01T04:21:54.931Z,99747.73
2018-10-01T04:24:22.407Z,99744.36
2018-10-01T04:26:49.891Z,99742.05
2018-10-01T04:29:24.238Z,99737.59
2018-10-01T04:31:51.761Z,99735.77
2018-10-01T04:34:19.231Z,99740.00
2018-10-01T04:36:48.254Z,99743.52
2018-10-01T04:39:15.734Z,99745.20
2018-10-01T04:41:43.481Z,99755.95
2018-10-01T04:44:11.775Z,99750.52
2018-10-01T04:46:40.174Z,99758.98
2018-10-01T04:49:08.105Z,99760.41
2018-10-01T04:51:37.318Z,99765.36
2018-10-01T04:54:04.863Z,99770.45
2018-10-01T04:56:32.365Z,99772.86
2018-10-01T04:59:01.207Z,99775.30
2018-10-01T05:01:28.708Z,99779.42
2018-10-01T05:03:56.216Z,99771.32
2018-10-01T05:06:24.213Z,99780.02
2018-10-01T05:08:51.719Z,99777.24
2018-10-01T05:11:19.235Z,99775.41
2018-10-01T05:13:49.223Z,99783.89
2018-10-01T05:16:16.731Z,99793.42
2018-10-01T05:18:44.220Z,99790.64
2018-10-01T05:21:14.028Z,99785.67
2018-10-01T05:23:41.520Z,99781.10
2018-10-01T05:26:09.000Z,99786.64
2018-10-01T05:28:36.835Z,99790.05
2018-10-01T05:31:04.312Z,99794.86
2018-10-01T05:33:31.825Z,99797.52
2018-10-01T05:36:02.403Z,99794.50
2018-10-01T05:38:30.979Z,99797.52
2018-10-01T05:40:58.507Z,99798.38
2018-10-01T05:43:28.308Z,99806.84
2018-10-01T05:45:55.780Z,99800.55
2018-10-01T05:48:23.283Z,99794.64
2018-10-01T05:50:51.097Z,99791.47
2018-10-01T05:53:18.583Z,99794.13
2018-10-01T05:55:46.115Z,99807.94
2018-10-01T05:58:14.193Z,99809.50
2018-10-01T06:00:41.631Z,99822.70
2018-10-01T06:03:09.104Z,99822.22
2018-10-01T06:05:41.773Z,99825.36
2018-10-01T06:08:09.318Z,99831.91
2018-10-01T06:10:36.827Z,99828.61
2018-10-01T06:13:05.474Z,99823.66
2018-10-01T06:15:33.041Z,99833.19
2018-10-01T06:18:00.787Z,99833.33
2018-10-01T06:20:29.603Z,99835.38
2018-10-01T06:22:57.378Z,99844.44
2018-10-01T06:25:24.855Z,99852.30
2018-10-01T06:27:52.732Z,99861.61
2018-10-01T06:30:20.230Z,99862.23
2018-10-01T06:32:47.769Z,99864.89
2018-10-01T06:35:16.328Z,99868.38
2018-10-01T06:37:44.791Z,99864.49
2018-10-01T06:40:14.014Z,99870.31
2018-10-01T06:42:41.849Z,99878.77
2018-10-01T06:45:09.375Z,99875.74
2018-10-01T06:47:36.919Z,99885.55
2018-10-01T06:50:11.320Z,99885.20
2018-10-01T06:52:38.914Z,99885.55
2018-10-01T06:55:06.469Z,99885.05
2018-10-01T06:57:34.419Z,99886.74
2018-10-01T07:00:02.680Z,99885.77
2018-10-01T07:02:30.183Z,99894.14
2018-10-01T07:05:00.024Z,99898.60
2018-10-01T07:07:28.468Z,99896.66
2018-10-01T07:09:55.950Z,99900.83
2018-10-01T07:12:24.440Z,99900.47
2018-10-01T07:14:52.541Z,99900.82
2018-10-01T07:17:20.155Z,99898.55
2018-10-01T07:19:48.008Z,99900.11
2018-10-01T07:22:15.522Z,99906.14
2018-10-01T07:24:43.287Z,99905.66
2018-10-01T07:27:11.215Z,99918.73
2018-10-01T07:29:39.245Z,99913.65
2018-10-01T07:32:06.738Z,99913.14
2018-10-01T07:34:35.337Z,99915.97
2018-10-01T07:37:02.876Z,99912.39
2018-10-01T07:39:30.397Z,99912.22
2018-10-01T07:41:59.434Z,99914.50
2018-10-01T07:44:26.937Z,99920.30
2018-10-01T07:46:54.520Z,99918.94
2018-10-01T07:49:22.469Z,99911.14
2018-10-01T07:51:51.243Z,99913.44
2018-10-01T07:54:21.953Z,99925.77
2018-10-01T07:56:50.710Z,99925.37
2018-10-01T07:59:18.228Z,99927.77
2018-10-01T08:01:46.973Z,99928.73
2018-10-01T08:04:19.387Z,99929.52
2018-10-01T08:06:48.727Z,99927.63
2018-10-01T08:09:19.623Z,99927.92
2018-10-01T08:11:54.908Z,99935.31
2018-10-01T08:14:22.436Z,99931.81
2018-10-01T08:16:50.580Z,99931.70
2018-10-01T08:19:26.094Z,99929.30
2018-10-01T08:21:53.563Z,99942.64
2018-10-01T08:24:21.316Z,99936.81
2018-10-01T08:26:51.133Z,99941.72
2018-10-01T08:29:18.654Z,99941.83
2018-10-01T08:31:46.197Z,99945.39
2018-10-01T08:34:15.263Z,99944.03
2018-10-01T08:36:42.749Z,99946.93
2018-10-01T08:39:12.199Z,99948.45
2018-10-01T08:41:42.435Z,99943.44
2018-10-01T08:44:11.445Z,99948.31
2018-10-01T08:46:40.092Z,99955.57
2018-10-01T08:49:14.885Z,99959.53
2018-10-01T08:52:01.634Z,99960.65
2018-10-01T08:54:42.124Z,99963.62
2018-10-01T08:57:10.426Z,99969.74
2018-10-01T08:59:38.307Z,99976.98
2018-10-01T09:02:06.944Z,99979.73
2018-10-01T09:04:34.595Z,99981.74
2018-10-01T09:07:06.390Z,99983.73
2018-10-01T09:09:35.030Z,99983.31
2018-10-01T09:12:02.727Z,99983.84
2018-10-01T09:14:31.521Z,99989.45
2018-10-01T09:19:31.462Z,99984.66
2018-10-01T09:24:35.371Z,99995.24
2018-10-01T09:27:03.559Z,99989.81
2018-10-01T09:29:32.545Z,99991.16
2018-10-01T09:32:00.163Z,99989.59
2018-10-01T09:34:27.704Z,99986.98
2018-10-01T09:36:56.494Z,99974.69
2018-10-01T09:39:23.987Z,99983.55
2018-10-01T09:41:51.527Z,99981.95
2018-10-01T09:44:22.268Z,99982.31
2018-10-01T09:46:49.908Z,99985.89
2018-10-01T09:49:17.404Z,99973.67
2018-10-01T09:51:46.219Z,99977.19
2018-10-01T09:54:14.256Z,99984.63
2018-10-01T09:56:42.432Z,99982.98
2018-10-01T09:59:11.689Z,99976.64
2018-10-01T10:01:39.198Z,99981.00
2018-10-01T10:04:06.846Z,99980.72
2018-10-01T10:06:35.431Z,99968.88
2018-10-01T10:09:03.030Z,99964.47
2018-10-01T10:11:30.602Z,99964.20
2018-10-01T10:13:58.590Z,99968.46
2018-10-01T10:16:30.379Z,99973.00
2018-10-01T10:18:57.891Z,99971.31
2018-10-01T10:21:26.700Z,99977.61
2018-10-01T10:23:54.823Z,99984.98
2018-10-01T10:26:22.531Z,99975.72
2018-10-01T10:28:53.951Z,99967.74
2018-10-01T10:31:21.458Z,99957.66
2018-10-01T10:33:49.136Z,99950.36
2018-10-01T10:36:17.851Z,99952.63
2018-10-01T10:38:45.473Z,99957.25
2018-10-01T10:41:12.978Z,99955.82
2018-10-01T10:43:41.655Z,99963.48
2018-10-01T10:46:09.219Z,99973.34
2018-10-01T10:48:37.283Z,99978.86
2018-10-01T10:51:05.161Z,99996.73
2018-10-01T10:53:32.678Z,100005.00
2018-10-01T10:56:01.241Z,100012.39
2018-10-01T10:58:33.014Z,100008.70
2018-10-01T11:03:34.475Z,100017.97
2018-10-01T11:06:02.438Z,100014.09
2018-10-01T11:08:29.951Z,100007.75
2018-10-01T11:10:57.755Z,99999.89
2018-10-01T11:13:25.619Z,99997.42
2018-10-01T11:15:53.282Z,99995.30
2018-10-01T11:18:20.780Z,99987.98
2018-10-01T11:20:48.737Z,99985.59
2018-10-01T11:23:16.300Z,99997.62
2018-10-01T11:25:44.432Z,100014.20
2018-10-01T11:28:13.215Z,100008.73
2018-10-01T11:30:43.882Z,100007.14
2018-10-01T11:33:11.434Z,100016.58
2018-10-01T11:35:43.397Z,100018.93
2018-10-01T11:38:11.980Z,100026.03
2018-10-01T11:40:39.522Z,100029.17
2018-10-01T11:43:07.374Z,100044.42
2018-10-01T11:45:34.932Z,100070.23
2018-10-01T11:48:02.993Z,100070.27
2018-10-01T11:50:31.815Z,100084.17
2018-10-01T11:53:02.622Z,100098.14
2018-10-01T11:55:31.138Z,100110.34
2018-10-01T11:58:05.725Z,100119.09
2018-10-01T12:00:35.503Z,100096.55
2018-10-01T12:03:07.431Z,100092.55
2018-10-01T12:05:40.202Z,100098.81
2018-10-01T12:08:10.678Z,100100.91
2018-10-01T12:10:38.230Z,100102.25
2018-10-01T12:13:08.695Z,100108.14
2018-10-01T12:18:18.215Z,100109.82
2018-10-01T12:20:50.319Z,100098.36
2018-10-01T12:23:19.883Z,100084.50
2018-10-01T12:25:55.878Z,100086.14
2018-10-01T12:28:25.218Z,100092.10
2018-10-01T12:30:55.916Z,100096.52
2018-10-01T12:33:24.525Z,100118.07
2018-10-01T12:35:52.599Z,100124.51
2018-10-01T12:38:29.475Z,100119.68
2018-10-01T12:41:04.191Z,100117.64
2018-10-01T12:43:32.419Z,100115.92
2018-10-01T12:46:00.705Z,100114.11
2018-10-01T12:48:29.614Z,100114.38
2018-10-01T12:50:58.777Z,100120.07
2018-10-01T12:53:26.915Z,100125.76
2018-10-01T12:55:57.633Z,100126.48
2018-10-01T12:58:26.148Z,100124.89
2018-10-01T13:00:53.655Z,100120.78
2018-10-01T13:03:23.497Z,100112.19
2018-10-01T13:05:51.453Z,100121.03
2018-10-01T13:08:19.584Z,100118.09
2018-10-01T13:10:55.391Z,100108.48
2018-10-01T13:13:24.317Z,100118.76
2018-10-01T13:15:51.790Z,100123.69
2018-10-01T13:18:22.354Z,100120.98
2018-10-01T13:20:52.703Z,100118.05
2018-10-01T13:23:22.019Z,100108.00
2018-10-01T13:25:50.495Z,100112.09
2018-10-01T13:28:24.251Z,100110.72
2018-10-01T13:30:56.782Z,100104.87
2018-10-01T13:33:25.927Z,100107.89
2018-10-01T13:35:55.065Z,100108.33
2018-10-01T13:38:26.609Z,100107.50
2018-10-01T13:40:56.972Z,100108.15
2018-10-01T13:43:24.458Z,100122.57
2018-10-01T13:45:54.854Z,100148.48
2018-10-01T13:48:22.885Z,100146.79
2018-10-01T13:50:51.338Z,100129.92
2018-10-01T13:55:59.690Z,100135.30
2018-10-01T13:58:27.614Z,100133.73
2018-10-01T14:00:55.600Z,100133.00
2018-10-01T14:03:23.491Z,100133.98
2018-10-01T14:05:52.517Z,100132.64
2018-10-01T14:10:53.934Z,100117.36
2018-10-01T14:13:21.503Z,100120.66
2018-10-01T14:15:52.575Z,100118.45
2018-10-01T14:18:20.493Z,100123.20
2018-10-01T14:20:50.376Z,100120.16
2018-10-01T14:23:18.784Z,100117.46
2018-10-01T14:25:48.222Z,100114.18
2018-10-01T14:30:49.638Z,100123.52
2018-10-01T14:33:18.221Z,100118.08
2018-10-01T14:35:47.439Z,100122.35
2018-10-01T14:38:16.391Z,100127.19
2018-10-01T14:40:44.469Z,100127.81
2018-10-01T14:43:13.392Z,100122.95
2018-10-01T14:45:42.191Z,100128.63
2018-10-01T14:48:11.235Z,100124.87
2018-10-01T14:50:39.344Z,100129.73
2018-10-01T14:53:07.707Z,100137.02
2018-10-01T14:55:37.453Z,100138.92
2018-10-01T14:58:05.682Z,100140.78
2018-10-01T15:00:34.353Z,100147.75
2018-10-01T15:03:02.222Z,100143.23
2018-10-01T15:05:29.738Z,100148.42
2018-10-01T15:08:03.115Z,100145.75
2018-10-01T15:10:32.032Z,100145.84
2018-10-01T15:12:59.548Z,100137.81
2018-10-01T15:15:28.286Z,100143.39
2018-10-01T15:17:56.679Z,100148.25
2018-10-01T15:20:24.232Z,100149.84
2018-10-01T15:22:53.284Z,100155.35
2018-10-01T15:25:23.542Z,100154.59
2018-10-01T15:27:52.586Z,100150.81
2018-10-01T15:30:20.535Z,100155.47
2018-10-01T15:32:48.060Z,100165.69
2018-10-01T15:35:16.545Z,100165.72
2018-10-01T15:37:48.272Z,100182.34
2018-10-01T15:40:17.407Z,100184.61
2018-10-01T15:42:48.250Z,100188.66
2018-10-01T15:45:18.571Z,100184.28
2018-10-01T15:47:46.317Z,100184.04
2018-10-01T15:50:14.639Z,100194.09
2018-10-01T15:52:42.566Z,100201.98
2018-10-01T15:55:10.366Z,100192.91
2018-10-01T15:57:42.547Z,100205.12
2018-10-01T16:05:22.566Z,100217.48
2018-10-01T16:07:51.079Z,100220.84
2018-10-01T16:10:20.303Z,100224.55
2018-10-01T16:12:54.315Z,100229.45
2018-10-01T16:15:24.214Z,100233.77
2018-10-01T16:17:52.370Z,100233.08
2018-10-01T16:20:25.679Z,100236.08
2018-10-01T16:22:54.157Z,100242.47
2018-10-01T16:25:21.679Z,100239.22
2018-10-01T16:27:53.401Z,100250.69
2018-10-01T16:30:20.865Z,100259.17
2018-10-01T16:32:50.604Z,100256.52
2018-10-01T16:35:20.408Z,100259.27
2018-10-01T16:37:48.639Z,100258.91
2018-10-01T16:40:20.281Z,100266.02
2018-10-01T16:42:48.331Z,100261.73
2018-10-01T16:45:17.298Z,100262.80
2018-10-01T16:47:48.291Z,100264.83
2018-10-01T16:50:17.593Z,100269.66
2018-10-01T16:52:47.098Z,100267.20
2018-10-01T16:55:14.629Z,100275.77
2018-10-01T16:57:44.019Z,100275.77
2018-10-01T17:00:15.102Z,100274.54
2018-10-01T17:02:43.383Z,100284.81
2018-10-01T17:05:14.428Z,100275.23
2018-10-01T17:07:42.778Z,100275.73
2018-10-01T17:10:10.280Z,100279.09
2018-10-01T17:12:38.310Z,100298.67
2018-10-01T17:15:05.820Z,100313.30
2018-10-01T17:17:33.607Z,100317.66
2018-10-01T17:20:06.181Z,100322.97
2018-10-01T17:25:07.514Z,100337.42
2018-10-01T17:27:35.051Z,100336.42
2018-10-01T17:30:05.350Z,100338.57
2018-10-01T17:32:34.318Z,100349.63
2018-10-01T17:35:02.547Z,100347.70
2018-10-01T17:37:30.647Z,100351.95
2018-10-01T17:40:00.598Z,100352.19
2018-10-01T17:42:28.710Z,100359.08
2018-10-01T17:44:57.494Z,100368.51
2018-10-01T17:47:25.803Z,100368.54
2018-10-01T17:49:54.286Z,100370.55
2018-10-01T17:52:23.390Z,100374.53
2018-10-01T17:54:55.701Z,100368.39
2018-10-01T17:57:23.490Z,100375.39
2018-10-01T17:59:52.249Z,100378.92
2018-10-01T18:02:20.736Z,100376.63
2018-10-01T18:04:50.007Z,100376.63
2018-10-01T18:07:22.422Z,100378.80
2018-10-01T18:09:51.404Z,100377.00
2018-10-01T18:12:20.563Z,100379.66
2018-10-01T18:14:49.085Z,100381.36
2018-10-01T18:17:17.111Z,100394.55
2018-10-01T18:19:44.691Z,100393.22
2018-10-01T18:22:12.495Z,100394.55
2018-10-01T18:24:40.669Z,100399.20
2018-10-01T18:27:09.314Z,100402.17
2018-10-01T18:29:37.378Z,100413.47
2018-10-01T18:32:06.343Z,100417.08
2018-10-01T18:34:35.593Z,100417.91
2018-10-01T18:37:04.251Z,100419.98
2018-10-01T18:39:33.146Z,100424.75
2018-10-01T18:42:08.314Z,100422.55
2018-10-01T18:44:36.547Z,100425.58
2018-10-01T18:47:09.258Z,100419.98
2018-10-01T18:49:38.126Z,100422.18
2018-10-01T18:52:06.835Z,100425.79
2018-10-01T18:54:35.141Z,100424.09
2018-10-01T18:57:03.271Z,100429.30
2018-10-01T18:59:33.220Z,100432.63
2018-10-01T19:02:01.245Z,100431.14
2018-10-01T19:04:30.103Z,100429.44
2018-10-01T19:07:01.303Z,100436.91
2018-10-01T19:09:29.457Z,100430.27
2018-10-01T19:11:58.518Z,100439.02
2018-10-01T19:14:26.418Z,100434.08
2018-10-01T19:16:57.643Z,100426.95
2018-10-01T19:19:26.110Z,100437.20
2018-10-01T19:21:54.419Z,100433.42
2018-10-01T19:24:30.559Z,100435.88
2018-10-01T19:27:02.351Z,100434.02
2018-10-01T19:29:30.439Z,100439.42
2018-10-01T19:32:00.359Z,100445.19
2018-10-01T19:34:31.235Z,100437.80
2018-10-01T19:36:59.466Z,100443.11
2018-10-01T19:39:28.073Z,100448.80
2018-10-01T19:41:55.855Z,100452.03
2018-10-01T19:44:25.856Z,100442.55
2018-10-01T19:46:53.528Z,100448.73
2018-10-01T19:49:21.851Z,100448.16
2018-10-01T19:51:49.363Z,100445.80
2018-10-01T19:54:18.740Z,100451.02
2018-10-01T19:56:46.593Z,100452.64
2018-10-01T19:59:14.119Z,100445.72
2018-10-01T20:01:42.858Z,100452.92
2018-10-01T20:04:10.744Z,100451.23
2018-10-01T20:06:38.222Z,100453.59
2018-10-01T20:09:06.712Z,100456.45
2018-10-01T20:11:34.551Z,100455.92
2018-10-01T20:14:04.055Z,100461.13
2018-10-01T20:16:32.395Z,100468.88
2018-10-01T20:19:04.604Z,100462.45
2018-10-01T20:21:35.457Z,100468.33
2018-10-01T20:24:03.784Z,100463.77
2018-10-01T20:29:14.429Z,100468.31
2018-10-01T20:31:45.940Z,100471.42
2018-10-01T20:34:13.424Z,100472.08
2018-10-01T20:36:40.912Z,100473.02
2018-10-01T20:39:10.529Z,100472.27
2018-10-01T20:41:38.023Z,100478.14
2018-10-01T20:44:05.806Z,100478.31
2018-10-01T20:46:34.372Z,100475.36
2018-10-01T20:49:02.537Z,100473.36
2018-10-01T20:51:30.023Z,100468.64
2018-10-01T20:53:57.974Z,100474.51
2018-10-01T20:56:25.510Z,100466.75
2018-10-01T20:58:52.975Z,100469.56
2018-10-01T21:01:21.964Z,100470.97
2018-10-01T21:03:50.527Z,100469.27
2018-10-01T21:06:17.982Z,100476.47
2018-10-01T21:08:47.161Z,100479.98
2018-10-01T21:11:15.354Z,100480.44
2018-10-01T21:13:44.433Z,100476.47
2018-10-01T21:16:14.804Z,100468.06
2018-10-01T21:18:42.674Z,100475.44
2018-10-01T21:21:10.364Z,100467.19
2018-10-01T21:23:38.823Z,100470.70
2018-10-01T21:28:39.453Z,100471.46
2018-10-01T21:31:07.771Z,100469.56
2018-10-01T21:33:35.708Z,100468.23
2018-10-01T21:36:03.251Z,100462.19
2018-10-01T21:38:34.459Z,100462.76
2018-10-01T21:41:06.932Z,100461.52
2018-10-01T21:43:34.447Z,100459.70
2018-10-01T21:46:05.231Z,100460.64
2018-10-01T21:48:35.304Z,100457.24
2018-10-01T21:51:04.950Z,100457.81
2018-10-01T21:53:32.697Z,100458.55
2018-10-01T21:56:00.166Z,100457.57
2018-10-01T21:58:28.103Z,100457.46
2018-10-01T22:01:00.655Z,100456.79
2018-10-01T22:03:29.566Z,100454.33
2018-10-01T22:05:57.425Z,100455.73
2018-10-01T22:08:27.839Z,100454.98
2018-10-01T22:10:55.915Z,100456.95
2018-10-01T22:13:25.747Z,100459.22
2018-10-01T22:15:54.141Z,100458.84
2018-10-01T22:18:21.614Z,100458.92
2018-10-01T22:20:51.073Z,100462.97
2018-10-01T22:23:20.725Z,100464.86
2018-10-01T22:25:49.471Z,100456.92
2018-10-01T22:28:17.611Z,100456.92
2018-10-01T22:30:45.130Z,100456.84
2018-10-01T22:33:15.937Z,100453.13
2018-10-01T22:35:44.451Z,100451.58
2018-10-01T22:38:11.940Z,100450.36
2018-10-01T22:40:41.334Z,100447.36
2018-10-01T22:43:09.517Z,100443.95
2018-10-01T22:45:36.989Z,100448.52
2018-10-01T22:48:06.271Z,100449.35
2018-10-01T22:50:36.314Z,100449.47
2018-10-01T22:53:03.779Z,100447.65
2018-10-01T22:55:31.251Z,100445.48
2018-10-01T22:58:01.065Z,100443.14
2018-10-01T23:00:29.669Z,100441.70
2018-10-01T23:02:58.779Z,100446.05
2018-10-01T23:05:26.350Z,100443.41
2018-10-01T23:07:54.502Z,100449.86
2018-10-01T23:10:22.022Z,100446.34
2018-10-01T23:12:50.112Z,100442.75
2018-10-01T23:15:17.936Z,100446.64
2018-10-01T23:17:45.399Z,100450.53
2018-10-01T23:20:12.862Z,100450.91
2018-10-01T23:22:40.698Z,100454.31
2018-10-01T23:25:08.212Z,100450.64
2018-10-01T23:27:35.660Z,100449.69
2018-10-01T23:30:03.547Z,100447.42
2018-10-01T23:32:31.050Z,100450.44
2018-10-01T23:34:58.515Z,100449.91
2018-10-01T23:37:25.966Z,100449.78
2018-10-01T23:39:53.718Z,100444.41
2018-10-01T23:42:21.280Z,100447.81
2018-10-01T23:44:48.726Z,100442.12
2018-10-01T23:47:18.642Z,100445.73
2018-10-01T23:49:48.714Z,100440.43
2018-10-01T23:52:16.290Z,100436.95
2018-10-01T23:54:47.927Z,100440.81
2018-10-01T23:57:15.387Z,100433.72
2018-10-01T23:59:42.870Z,100431.53
